Time;durP1;ratioP1;P1;durP2;ratioP2;P2;SDS_P1;SDS_P2;PMS_P1;PMS_P2;Temp;Humidity;BMP_temperature;BMP_pressure;BME280_temperature;BME280_humidity;BME280_pressure;Samples;Min_cycle;Max_cycle;Signal;HPM_P1;HPM_P2
2023/04/01 00:00:59;;;;;;;28.83;13.33;;;;;;;;;;4989489;28;20192;-69
2023/04/01 00:03:25;;;;;;;26.10;12.67;;;;;;;;;;4985918;28;20271;-68
2023/04/01 00:05:50;;;;;;;35.73;15.23;;;;;;;;;;4991885;28;20186;-68
2023/04/01 00:08:16;;;;;;;27.67;13.50;;;;;;;;;;4993923;28;20902;-68
2023/04/01 00:10:41;;;;;;;26.30;14.03;;;;;;;;;;4985308;28;20229;-68
2023/04/01 00:13:06;;;;;;;27.53;12.20;;;;;;;;;;4993328;28;20180;-68
2023/04/01 00:15:32;;;;;;;30.93;13.43;;;;;;;;;;4984248;28;20561;-68
2023/04/01 00:17:58;;;;;;;30.37;14.27;;;;;;;;;;4985886;28;20208;-68
2023/04/01 00:20:24;;;;;;;25.43;13.27;;;;;;;;;;4993959;28;20552;-69
2023/04/01 00:22:49;;;;;;;40.10;14.37;;;;;;;;;;4988402;28;20204;-69
2023/04/01 00:25:14;;;;;;;35.80;15.40;;;;;;;;;;4991886;28;20689;-68
2023/04/01 00:27:40;;;;;;;33.73;14.13;;;;;;;;;;4991555;28;20187;-69
2023/04/01 00:30:06;;;;;;;40.13;14.83;;;;;;;;;;4991667;28;20168;-68
2023/04/01 00:32:31;;;;;;;37.60;13.43;;;;;;;;;;4987022;28;20243;-69
2023/04/01 00:34:58;;;;;;;28.07;12.80;;;;;;;;;;4988644;28;20219;-69
2023/04/01 00:37:24;;;;;;;37.90;14.93;;;;;;;;;;4992209;28;20656;-69
2023/04/01 00:39:49;;;;;;;30.63;13.20;;;;;;;;;;4986414;28;20275;-68
2023/04/01 00:42:14;;;;;;;25.97;13.37;;;;;;;;;;4989359;28;20298;-68
2023/04/01 00:44:40;;;;;;;25.70;12.60;;;;;;;;;;4987047;28;20176;-68
2023/04/01 00:47:05;;;;;;;27.53;13.87;;;;;;;;;;4987602;28;20266;-68
2023/04/01 00:49:39;;;;;;;29.63;14.53;;;;;;;;;;4991658;28;20206;-68
2023/04/01 00:52:05;;;;;;;28.93;13.93;;;;;;;;;;5005976;28;20207;-69
2023/04/01 00:54:31;;;;;;;18.87;11.13;;;;;;;;;;4992933;28;20188;-69
2023/04/01 00:56:58;;;;;;;23.63;12.00;;;;;;;;;;4993144;28;20303;-69
2023/04/01 00:59:26;;;;;;;23.73;11.97;;;;;;;;;;4995135;28;20190;-68
2023/04/01 01:01:51;;;;;;;28.97;12.90;;;;;;;;;;4998422;28;20302;-68
2023/04/01 01:04:27;;;;;;;27.07;12.40;;;;;;;;;;4996967;28;20470;-69
2023/04/01 01:07:11;;;;;;;22.00;9.93;;;;;;;;;;4993512;28;20183;-69
2023/04/01 01:09:36;;;;;;;23.67;11.17;;;;;;;;;;4983828;28;20188;-69
2023/04/01 01:12:04;;;;;;;25.43;11.80;;;;;;;;;;4976039;28;20691;-68
2023/04/01 01:14:36;;;;;;;17.57;8.90;;;;;;;;;;4989924;28;20188;-68
2023/04/01 01:17:27;;;;;;;14.87;8.47;;;;;;;;;;4978110;28;20298;-69
2023/04/01 01:20:06;;;;;;;21.83;8.73;;;;;;;;;;4972305;28;20214;-68
2023/04/01 01:22:36;;;;;;;20.60;8.77;;;;;;;;;;4989743;28;20211;-69
2023/04/01 01:25:04;;;;;;;11.50;7.00;;;;;;;;;;4991963;28;20197;-69
2023/04/01 01:27:31;;;;;;;12.80;7.37;;;;;;;;;;4991627;28;20176;-69
2023/04/01 01:30:10;;;;;;;13.63;7.07;;;;;;;;;;4984433;28;20215;-69
2023/04/01 01:32:35;;;;;;;13.77;7.63;;;;;;;;;;4989304;28;20620;-69
2023/04/01 01:35:14;;;;;;;18.20;8.33;;;;;;;;;;4989140;28;20282;-68
2023/04/01 01:37:40;;;;;;;17.27;8.87;;;;;;;;;;4991483;28;20183;-68
2023/04/01 01:40:07;;;;;;;18.43;8.83;;;;;;;;;;4981984;28;20252;-68
2023/04/01 01:42:34;;;;;;;15.07;10.03;;;;;;;;;;4991141;28;20760;-69
2023/04/01 01:45:00;;;;;;;15.33;8.47;;;;;;;;;;4987953;28;20179;-68
2023/04/01 01:47:27;;;;;;;18.27;8.17;;;;;;;;;;4987637;28;20238;-68
2023/04/01 01:49:53;;;;;;;16.43;8.83;;;;;;;;;;4989063;28;20191;-68
2023/04/01 01:52:18;;;;;;;21.63;9.47;;;;;;;;;;4991269;28;20199;-68
2023/04/01 01:54:50;;;;;;;22.63;11.90;;;;;;;;;;4990256;28;20179;-68
2023/04/01 01:57:16;;;;;;;16.57;7.50;;;;;;;;;;4979785;28;20550;-68
2023/04/01 01:59:42;;;;;;;15.57;8.77;;;;;;;;;;4990063;28;20184;-68
2023/04/01 02:02:08;;;;;;;18.23;7.70;;;;;;;;;;4993417;28;20219;-68
2023/04/01 02:04:34;;;;;;;16.23;8.97;;;;;;;;;;4991720;28;20180;-68
2023/04/01 02:07:02;;;;;;;17.90;7.67;;;;;;;;;;4991404;28;20262;-68
2023/04/01 02:09:29;;;;;;;14.00;8.07;;;;;;;;;;4991524;28;20175;-68
2023/04/01 02:11:59;;;;;;;16.37;8.13;;;;;;;;;;4986470;28;20207;-68
2023/04/01 02:14:26;;;;;;;17.03;7.63;;;;;;;;;;4991711;28;20218;-68
2023/04/01 02:16:52;;;;;;;15.37;7.60;;;;;;;;;;4990119;28;20186;-68
2023/04/01 02:19:22;;;;;;;18.60;8.47;;;;;;;;;;4991394;28;20180;-68
2023/04/01 02:21:49;;;;;;;20.97;8.03;;;;;;;;;;4991213;28;20238;-68
2023/04/01 02:24:15;;;;;;;14.97;7.17;;;;;;;;;;4983637;28;20229;-68
2023/04/01 02:26:41;;;;;;;14.93;7.63;;;;;;;;;;4991081;28;20259;-68
2023/04/01 02:29:08;;;;;;;16.33;8.17;;;;;;;;;;4991830;28;20307;-68
2023/04/01 02:31:34;;;;;;;15.50;7.60;;;;;;;;;;5008145;23;20235;-72
2023/04/01 02:33:59;;;;;;;14.93;7.80;;;;;;;;;;5008266;28;20193;-73
2023/04/01 02:36:25;;;;;;;16.90;7.73;;;;;;;;;;5010390;28;20609;-74
2023/04/01 02:38:50;;;;;;;16.93;8.43;;;;;;;;;;5012816;28;20191;-73
2023/04/01 02:41:16;;;;;;;20.03;9.23;;;;;;;;;;5013111;28;20202;-73
2023/04/01 02:43:41;;;;;;;18.33;8.27;;;;;;;;;;5011676;28;20213;-74
2023/04/01 02:46:06;;;;;;;19.27;9.50;;;;;;;;;;5011069;28;20613;-73
2023/04/01 02:48:31;;;;;;;16.67;8.50;;;;;;;;;;5011627;28;20178;-73
2023/04/01 02:50:57;;;;;;;13.60;8.03;;;;;;;;;;5011384;28;20229;-73
2023/04/01 02:53:22;;;;;;;15.43;7.60;;;;;;;;;;5010915;28;20183;-74
2023/04/01 02:55:50;;;;;;;13.60;8.37;;;;;;;;;;5009778;28;20183;-74
2023/04/01 02:58:15;;;;;;;14.07;7.40;;;;;;;;;;5011007;28;20213;-73
2023/04/01 03:00:40;;;;;;;15.80;7.87;;;;;;;;;;5010469;28;20202;-73
2023/04/01 03:03:06;;;;;;;10.37;7.13;;;;;;;;;;5014817;28;20202;-73
2023/04/01 03:05:31;;;;;;;14.10;7.13;;;;;;;;;;5011006;28;20178;-72
2023/04/01 03:07:56;;;;;;;12.47;6.77;;;;;;;;;;5011040;28;20172;-73
2023/04/01 03:10:21;;;;;;;16.80;7.53;;;;;;;;;;5013689;28;20186;-73
2023/04/01 03:12:46;;;;;;;17.67;8.40;;;;;;;;;;5014690;28;20191;-73
2023/04/01 03:15:14;;;;;;;17.37;7.87;;;;;;;;;;5015828;28;20182;-73
2023/04/01 03:17:39;;;;;;;14.13;8.00;;;;;;;;;;5012174;28;20633;-73
2023/04/01 03:20:05;;;;;;;15.43;8.17;;;;;;;;;;5014043;28;20233;-73
2023/04/01 03:22:30;;;;;;;17.80;9.40;;;;;;;;;;5011320;28;20222;-73
2023/04/01 03:24:56;;;;;;;19.03;10.63;;;;;;;;;;5013936;28;20178;-73
2023/04/01 03:27:21;;;;;;;21.17;9.30;;;;;;;;;;5023614;28;20621;-73
2023/04/01 03:29:46;;;;;;;25.33;10.23;;;;;;;;;;5014189;28;20175;-73
2023/04/01 03:32:11;;;;;;;21.30;11.50;;;;;;;;;;5013027;28;20217;-73
2023/04/01 03:34:37;;;;;;;29.17;10.93;;;;;;;;;;5010033;28;20665;-72
2023/04/01 03:37:02;;;;;;;26.27;12.27;;;;;;;;;;5013343;28;20171;-72
2023/04/01 03:39:27;;;;;;;26.53;13.20;;;;;;;;;;5016863;28;20624;-73
2023/04/01 03:41:52;;;;;;;28.90;13.10;;;;;;;;;;5013217;28;20207;-73
2023/04/01 03:44:17;;;;;;;25.40;11.07;;;;;;;;;;5016668;28;20637;-73
2023/04/01 03:46:43;;;;;;;23.40;11.40;;;;;;;;;;5016742;28;20191;-73
2023/04/01 03:49:12;;;;;;;26.57;11.47;;;;;;;;;;5016307;28;20263;-73
2023/04/01 03:51:38;;;;;;;26.60;12.13;;;;;;;;;;5014813;28;20261;-74
2023/04/01 03:54:03;;;;;;;20.83;10.87;;;;;;;;;;5013670;28;20764;-73
2023/04/01 03:56:28;;;;;;;20.07;9.93;;;;;;;;;;5014391;28;20197;-73
2023/04/01 03:58:54;;;;;;;21.83;9.83;;;;;;;;;;5014141;28;20201;-74
2023/04/01 04:01:23;;;;;;;22.07;11.00;;;;;;;;;;5014805;28;20179;-74
2023/04/01 04:03:49;;;;;;;21.00;10.07;;;;;;;;;;5016166;28;20199;-73
2023/04/01 04:06:14;;;;;;;20.23;9.80;;;;;;;;;;5011559;28;20175;-73
2023/04/01 04:08:40;;;;;;;20.80;10.23;;;;;;;;;;5013310;28;20182;-73
2023/04/01 04:11:05;;;;;;;19.47;10.53;;;;;;;;;;5011672;28;20237;-73
2023/04/01 04:13:30;;;;;;;23.30;10.87;;;;;;;;;;5014695;28;20653;-73
2023/04/01 04:15:55;;;;;;;17.97;10.30;;;;;;;;;;5011444;28;20190;-74
2023/04/01 04:18:21;;;;;;;21.50;10.83;;;;;;;;;;5014008;28;20190;-72
2023/04/01 04:20:48;;;;;;;21.67;11.73;;;;;;;;;;5010085;28;20597;-73
2023/04/01 04:23:13;;;;;;;21.40;12.27;;;;;;;;;;5009223;28;20277;-73
2023/04/01 04:25:38;;;;;;;20.03;11.43;;;;;;;;;;5005674;28;20210;-73
2023/04/01 04:28:04;;;;;;;25.20;12.90;;;;;;;;;;5013024;28;20253;-73
2023/04/01 04:30:29;;;;;;;25.17;13.70;;;;;;;;;;5011291;28;20546;-73
2023/04/01 04:32:54;;;;;;;20.67;10.80;;;;;;;;;;5010364;28;20215;-73
2023/04/01 04:35:20;;;;;;;24.53;11.90;;;;;;;;;;5010979;28;20179;-72
2023/04/01 04:37:45;;;;;;;19.83;11.57;;;;;;;;;;5013533;28;20182;-73
2023/04/01 04:40:10;;;;;;;25.73;11.97;;;;;;;;;;5009273;28;20194;-73
2023/04/01 04:42:35;;;;;;;26.93;12.20;;;;;;;;;;5001737;28;20294;-73
2023/04/01 04:45:01;;;;;;;24.03;12.43;;;;;;;;;;5013310;28;20171;-73
2023/04/01 04:47:26;;;;;;;26.23;12.27;;;;;;;;;;5012943;28;20707;-73
2023/04/01 04:49:51;;;;;;;23.57;12.30;;;;;;;;;;5011443;28;20172;-73
2023/04/01 04:52:16;;;;;;;23.00;12.20;;;;;;;;;;5013025;28;20210;-73
2023/04/01 04:54:41;;;;;;;26.13;13.13;;;;;;;;;;5010428;28;20176;-73
2023/04/01 04:57:06;;;;;;;25.97;13.40;;;;;;;;;;5011944;28;20861;-73
2023/04/01 04:59:32;;;;;;;29.80;16.40;;;;;;;;;;5013245;28;20183;-73
2023/04/01 05:01:57;;;;;;;31.17;15.20;;;;;;;;;;5012573;28;20669;-73
2023/04/01 05:04:22;;;;;;;30.47;15.43;;;;;;;;;;5012936;28;20273;-73
2023/04/01 05:06:47;;;;;;;32.10;15.27;;;;;;;;;;5012477;28;20575;-73
2023/04/01 05:09:13;;;;;;;34.10;15.83;;;;;;;;;;5010422;28;20850;-73
2023/04/01 05:11:38;;;;;;;28.37;15.83;;;;;;;;;;5011095;28;20190;-73
2023/04/01 05:14:03;;;;;;;30.80;16.90;;;;;;;;;;5012927;28;20241;-74
2023/04/01 05:16:29;;;;;;;27.03;16.80;;;;;;;;;;5010122;28;20183;-73
2023/04/01 05:18:54;;;;;;;27.40;15.03;;;;;;;;;;5011091;28;20282;-73
2023/04/01 05:21:20;;;;;;;26.27;14.37;;;;;;;;;;5008161;28;20763;-73
2023/04/01 05:23:45;;;;;;;23.43;13.10;;;;;;;;;;5008541;28;20748;-73
2023/04/01 05:26:12;;;;;;;29.63;16.43;;;;;;;;;;5011861;28;20213;-74
2023/04/01 05:28:38;;;;;;;28.07;15.13;;;;;;;;;;5013719;28;20186;-73
2023/04/01 05:31:03;;;;;;;31.27;15.10;;;;;;;;;;5011716;28;20195;-73
2023/04/01 05:33:29;;;;;;;28.57;15.23;;;;;;;;;;5010711;28;20194;-73
2023/04/01 05:35:55;;;;;;;30.33;17.57;;;;;;;;;;5010744;28;20186;-73
2023/04/01 05:38:20;;;;;;;28.20;16.20;;;;;;;;;;5010950;28;20178;-74
2023/04/01 05:40:45;;;;;;;30.10;16.67;;;;;;;;;;5011432;28;20206;-72
2023/04/01 05:43:11;;;;;;;27.23;16.37;;;;;;;;;;5010964;28;20202;-73
2023/04/01 05:45:36;;;;;;;24.90;15.00;;;;;;;;;;5012505;28;20186;-73
2023/04/01 05:48:01;;;;;;;30.80;15.87;;;;;;;;;;5010620;28;20183;-73
2023/04/01 05:50:26;;;;;;;29.33;14.77;;;;;;;;;;5012944;28;20182;-73
2023/04/01 05:52:52;;;;;;;29.67;15.33;;;;;;;;;;5012116;28;20261;-73
2023/04/01 05:55:17;;;;;;;33.37;17.00;;;;;;;;;;5015373;28;20249;-73
2023/04/01 05:57:44;;;;;;;30.47;14.93;;;;;;;;;;5012145;28;20181;-73
2023/04/01 06:00:09;;;;;;;28.33;15.57;;;;;;;;;;5008422;28;20671;-73
2023/04/01 06:02:35;;;;;;;28.17;15.17;;;;;;;;;;5005194;28;20278;-73
2023/04/01 06:05:03;;;;;;;29.20;15.83;;;;;;;;;;5012724;28;20262;-73
2023/04/01 06:07:28;;;;;;;31.03;14.80;;;;;;;;;;5019835;28;20211;-73
2023/04/01 06:09:54;;;;;;;28.63;13.03;;;;;;;;;;5012195;28;20668;-73
2023/04/01 06:12:52;;;;;;;25.93;13.17;;;;;;;;;;5009929;28;20253;-73
2023/04/01 06:15:20;;;;;;;23.37;13.53;;;;;;;;;;4973488;28;20195;-74
2023/04/01 06:17:57;;;;;;;26.10;13.23;;;;;;;;;;5010444;28;20183;-73
2023/04/01 06:20:28;;;;;;;26.10;12.27;;;;;;;;;;5009411;28;20186;-73
2023/04/01 06:23:12;;;;;;;24.37;13.47;;;;;;;;;;5009296;28;20214;-72
2023/04/01 06:25:37;;;;;;;26.07;12.77;;;;;;;;;;5009944;28;20163;-73
2023/04/01 06:28:17;;;;;;;23.27;12.40;;;;;;;;;;5011714;28;20233;-73
2023/04/01 06:30:45;;;;;;;24.47;11.60;;;;;;;;;;5010610;28;20202;-73
2023/04/01 06:33:28;;;;;;;26.27;12.47;;;;;;;;;;5002361;28;20202;-72
2023/04/01 06:36:12;;;;;;;28.37;13.07;;;;;;;;;;5010327;28;20741;-72
2023/04/01 06:38:52;;;;;;;23.97;13.13;;;;;;;;;;5009464;28;20213;-72
2023/04/01 06:41:23;;;;;;;21.13;10.67;;;;;;;;;;5010168;28;21476;-72
2023/04/01 06:43:54;;;;;;;24.20;12.90;;;;;;;;;;5007828;28;20253;-73
2023/04/01 06:46:25;;;;;;;23.73;11.80;;;;;;;;;;5014314;28;20175;-73
2023/04/01 06:48:50;;;;;;;26.60;13.67;;;;;;;;;;5012639;28;20194;-73
2023/04/01 06:51:22;;;;;;;22.00;12.23;;;;;;;;;;5015566;28;20186;-72
2023/04/01 06:54:02;;;;;;;17.60;10.70;;;;;;;;;;5014933;28;20183;-72
2023/04/01 06:56:28;;;;;;;22.70;11.53;;;;;;;;;;5011739;28;20183;-72
2023/04/01 06:59:20;;;;;;;20.47;11.50;;;;;;;;;;5013718;28;20232;-72
2023/04/01 07:02:00;;;;;;;23.63;11.10;;;;;;;;;;5010632;28;20293;-72
2023/04/01 07:04:28;;;;;;;27.30;12.63;;;;;;;;;;5010953;28;20183;-73
2023/04/01 07:06:55;;;;;;;24.37;11.50;;;;;;;;;;5014442;28;20187;-73
2023/04/01 07:09:22;;;;;;;23.37;12.60;;;;;;;;;;5015231;28;20175;-73
2023/04/01 07:11:48;;;;;;;22.80;11.40;;;;;;;;;;5014526;28;20657;-73
2023/04/01 07:14:13;;;;;;;20.17;12.00;;;;;;;;;;5014662;28;20260;-73
2023/04/01 07:16:59;;;;;;;25.83;12.60;;;;;;;;;;5015851;28;20553;-73
2023/04/01 07:19:34;;;;;;;27.70;15.07;;;;;;;;;;5006106;28;20724;-73
2023/04/01 07:22:22;;;;;;;26.40;12.40;;;;;;;;;;5012462;28;20214;-73
2023/04/01 07:24:48;;;;;;;26.90;12.47;;;;;;;;;;5010267;28;20225;-73
2023/04/01 07:27:14;;;;;;;26.27;12.40;;;;;;;;;;5012571;28;20187;-73
2023/04/01 07:29:40;;;;;;;23.47;13.20;;;;;;;;;;5015658;28;20182;-73
2023/04/01 07:32:05;;;;;;;24.47;11.80;;;;;;;;;;5015084;28;20210;-74
2023/04/01 07:34:46;;;;;;;24.93;12.07;;;;;;;;;;5009085;28;20246;-73
2023/04/01 07:37:14;;;;;;;26.53;12.23;;;;;;;;;;5014817;28;20182;-73
2023/04/01 07:39:39;;;;;;;27.13;13.83;;;;;;;;;;5014176;28;20171;-73
2023/04/01 07:42:24;;;;;;;24.20;13.57;;;;;;;;;;5014116;28;20198;-73
2023/04/01 07:45:01;;;;;;;23.37;12.83;;;;;;;;;;5012161;28;20649;-73
2023/04/01 07:47:34;;;;;;;28.13;12.93;;;;;;;;;;5013125;28;20707;-73
2023/04/01 07:50:11;;;;;;;25.40;12.83;;;;;;;;;;5011595;28;20190;-73
2023/04/01 07:52:54;;;;;;;22.37;12.67;;;;;;;;;;5010101;28;20576;-72
2023/04/01 07:55:22;;;;;;;26.63;12.50;;;;;;;;;;5015106;28;20175;-73
2023/04/01 07:58:06;;;;;;;27.30;11.80;;;;;;;;;;5014469;28;20546;-73
2023/04/01 08:00:49;;;;;;;28.87;12.00;;;;;;;;;;5012811;28;20179;-72
2023/04/01 08:03:33;;;;;;;27.53;12.37;;;;;;;;;;4996215;28;20648;-72
2023/04/01 08:06:03;;;;;;;28.50;14.47;;;;;;;;;;5011876;28;20175;-73
2023/04/01 08:08:41;;;;;;;27.10;13.13;;;;;;;;;;5011944;28;20207;-73
2023/04/01 08:11:09;;;;;;;29.43;15.20;;;;;;;;;;5013137;28;20656;-73
2023/04/01 08:13:45;;;;;;;25.80;13.60;;;;;;;;;;5017196;28;20641;-73
2023/04/01 08:16:24;;;;;;;25.50;12.80;;;;;;;;;;5014274;28;20174;-72
2023/04/01 08:18:55;;;;;;;26.10;13.17;;;;;;;;;;5013775;28;20270;-72
2023/04/01 08:21:25;;;;;;;25.60;12.80;;;;;;;;;;5007199;28;20200;-72
2023/04/01 08:23:55;;;;;;;24.50;13.60;;;;;;;;;;5012956;28;20215;-72
2023/04/01 08:26:35;;;;;;;25.40;12.53;;;;;;;;;;5016165;28;20427;-72
2023/04/01 08:29:04;;;;;;;19.80;11.10;;;;;;;;;;5013479;28;20531;-72
2023/04/01 08:31:35;;;;;;;22.73;12.13;;;;;;;;;;5013923;28;20282;-72
2023/04/01 08:34:02;;;;;;;19.43;12.73;;;;;;;;;;5006557;28;20270;-72
2023/04/01 08:36:43;;;;;;;22.30;13.13;;;;;;;;;;5009351;28;20245;-72
2023/04/01 08:39:15;;;;;;;23.10;13.17;;;;;;;;;;5005428;28;20190;-72
2023/04/01 08:41:59;;;;;;;20.70;11.47;;;;;;;;;;5011574;28;20198;-72
2023/04/01 08:44:24;;;;;;;22.87;13.37;;;;;;;;;;5008725;28;20644;-72
2023/04/01 08:46:55;;;;;;;20.93;11.67;;;;;;;;;;5013421;28;20186;-72
2023/04/01 08:49:36;;;;;;;28.50;13.63;;;;;;;;;;5008956;28;20203;-72
2023/04/01 08:52:19;;;;;;;25.57;12.83;;;;;;;;;;5012914;28;20672;-72
2023/04/01 08:54:56;;;;;;;19.57;13.13;;;;;;;;;;5011942;28;20665;-73
2023/04/01 08:57:22;;;;;;;24.13;13.50;;;;;;;;;;5006976;28;20233;-72
2023/04/01 08:59:53;;;;;;;25.10;14.83;;;;;;;;;;5012922;28;20212;-72
2023/04/01 09:02:32;;;;;;;22.77;12.80;;;;;;;;;;5010991;28;20186;-73
2023/04/01 09:04:57;;;;;;;19.43;12.03;;;;;;;;;;5023060;28;20205;-72
2023/04/01 09:07:23;;;;;;;22.33;12.10;;;;;;;;;;5012214;28;20595;-72
2023/04/01 09:10:06;;;;;;;25.17;13.73;;;;;;;;;;5013272;28;20237;-73
2023/04/01 09:12:35;;;;;;;16.00;11.40;;;;;;;;;;5011827;28;20241;-73
2023/04/01 09:15:03;;;;;;;18.57;11.23;;;;;;;;;;5012976;28;20231;-74
2023/04/01 09:17:43;;;;;;;15.70;11.03;;;;;;;;;;5012730;28;20174;-73
2023/04/01 09:20:17;;;;;;;17.83;10.40;;;;;;;;;;5021152;28;20676;-73
2023/04/01 09:23:01;;;;;;;14.40;10.30;;;;;;;;;;5011447;28;20710;-73
2023/04/01 09:25:32;;;;;;;17.67;11.63;;;;;;;;;;5018699;28;20177;-73
2023/04/01 09:28:07;;;;;;;17.87;11.40;;;;;;;;;;5013692;28;20261;-73
2023/04/01 09:30:32;;;;;;;16.03;11.03;;;;;;;;;;5012765;28;20185;-73
2023/04/01 09:33:09;;;;;;;13.23;9.80;;;;;;;;;;5008716;28;20211;-73
2023/04/01 09:35:35;;;;;;;13.60;9.77;;;;;;;;;;5011273;28;20190;-73
2023/04/01 09:38:12;;;;;;;18.20;11.45;;;;;;;;;;5004696;28;20183;-73
2023/04/01 09:40:56;;;;;;;15.18;10.57;;;;;;;;;;5012036;28;20526;-73
2023/04/01 09:43:24;;;;;;;16.27;11.40;;;;;;;;;;5014049;28;20191;-73
2023/04/01 09:46:09;;;;;;;13.73;9.93;;;;;;;;;;5010426;28;20619;-73
2023/04/01 09:48:43;;;;;;;17.17;11.00;;;;;;;;;;5022676;28;20178;-73
2023/04/01 09:51:20;;;;;;;19.33;9.10;;;;;;;;;;5008846;28;20706;-73
2023/04/01 09:53:57;;;;;;;14.02;9.98;;;;;;;;;;5012466;28;20181;-73
2023/04/01 09:56:40;;;;;;;16.25;11.07;;;;;;;;;;5012559;28;20261;-73
2023/04/01 09:59:35;;;;;;;14.05;9.98;;;;;;;;;;5009219;28;20190;-73
2023/04/01 10:02:18;;;;;;;13.73;9.73;;;;;;;;;;4950050;28;20269;-73
2023/04/01 10:04:52;;;;;;;13.23;10.07;;;;;;;;;;5011553;28;20687;-72
2023/04/01 10:07:18;;;;;;;12.63;9.38;;;;;;;;;;5010837;28;20230;-73
2023/04/01 10:10:01;;;;;;;14.63;10.35;;;;;;;;;;5013486;28;20175;-72
2023/04/01 10:12:45;;;;;;;12.20;9.10;;;;;;;;;;5006901;28;20257;-72
2023/04/01 10:15:45;;;;;;;11.38;8.15;;;;;;;;;;5005008;28;20175;-72
2023/04/01 10:18:23;;;;;;;12.45;8.25;;;;;;;;;;4962380;28;20208;-72
2023/04/01 10:20:48;;;;;;;12.63;8.95;;;;;;;;;;5003695;28;20186;-72
2023/04/01 10:23:16;;;;;;;12.13;8.30;;;;;;;;;;5014449;28;20558;-72
2023/04/01 10:25:45;;;;;;;10.85;8.90;;;;;;;;;;5013267;28;20210;-73
2023/04/01 10:28:16;;;;;;;12.57;9.20;;;;;;;;;;5012713;28;20183;-72
2023/04/01 10:30:55;;;;;;;10.32;8.20;;;;;;;;;;5014363;28;20230;-73
2023/04/01 10:33:38;;;;;;;11.07;8.50;;;;;;;;;;5014236;28;20209;-72
2023/04/01 10:36:29;;;;;;;10.20;8.13;;;;;;;;;;5011814;28;20191;-73
2023/04/01 10:39:01;;;;;;;9.50;7.72;;;;;;;;;;5029450;28;20753;-72
2023/04/01 10:41:35;;;;;;;12.52;8.48;;;;;;;;;;5012629;28;20251;-72
2023/04/01 10:44:17;;;;;;;9.95;7.82;;;;;;;;;;5015574;28;20186;-73
2023/04/01 10:46:55;;;;;;;9.18;7.30;;;;;;;;;;5016168;28;20171;-73
2023/04/01 10:49:35;;;;;;;8.55;7.38;;;;;;;;;;5015830;28;20163;-72
2023/04/01 10:52:26;;;;;;;8.90;7.18;;;;;;;;;;5015602;28;20182;-72
2023/04/01 10:55:03;;;;;;;8.93;7.70;;;;;;;;;;5000087;28;20245;-72
2023/04/01 10:57:31;;;;;;;8.52;6.80;;;;;;;;;;5015769;28;20675;-72
2023/04/01 10:59:59;;;;;;;7.60;6.28;;;;;;;;;;5011987;28;20179;-72
2023/04/01 11:02:56;;;;;;;8.23;6.20;;;;;;;;;;5013285;28;20226;-72
2023/04/01 11:05:35;;;;;;;7.05;6.20;;;;;;;;;;5004889;28;20258;-72
2023/04/01 11:08:13;;;;;;;7.95;5.68;;;;;;;;;;5006986;28;20195;-72
2023/04/01 11:10:38;;;;;;;6.88;6.18;;;;;;;;;;5017439;28;20492;-72
2023/04/01 11:13:06;;;;;;;6.15;5.55;;;;;;;;;;5016862;28;20230;-72
2023/04/01 11:15:49;;;;;;;6.13;5.45;;;;;;;;;;5015540;28;20171;-72
2023/04/01 11:18:29;;;;;;;8.00;6.10;;;;;;;;;;5015228;28;20262;-72
2023/04/01 11:21:13;;;;;;;6.68;5.55;;;;;;;;;;5014351;28;20174;-72
2023/04/01 11:23:50;;;;;;;6.22;5.63;;;;;;;;;;5014542;28;20221;-73
2023/04/01 11:26:34;;;;;;;7.35;5.93;;;;;;;;;;5017331;28;20179;-72
2023/04/01 11:28:59;;;;;;;8.25;7.40;;;;;;;;;;5012286;28;20703;-72
2023/04/01 11:31:44;;;;;;;8.45;6.85;;;;;;;;;;5012619;28;20195;-72
2023/04/01 11:34:28;;;;;;;9.68;7.40;;;;;;;;;;5010608;28;20183;-73
2023/04/01 11:37:05;;;;;;;10.23;7.20;;;;;;;;;;5007786;28;20174;-73
2023/04/01 11:39:30;;;;;;;9.73;7.55;;;;;;;;;;5014114;28;20178;-73
2023/04/01 11:42:15;;;;;;;7.43;6.57;;;;;;;;;;5015639;28;20260;-73
2023/04/01 11:44:46;;;;;;;4.63;4.18;;;;;;;;;;5020232;28;20270;-73
2023/04/01 11:47:12;;;;;;;5.43;4.63;;;;;;;;;;5007329;28;20553;-73
2023/04/01 11:49:37;;;;;;;7.85;6.47;;;;;;;;;;5013259;28;20179;-73
2023/04/01 11:52:05;;;;;;;8.70;7.82;;;;;;;;;;5013431;28;20345;-73
2023/04/01 11:54:39;;;;;;;8.95;6.95;;;;;;;;;;5012260;28;20198;-73
2023/04/01 11:57:12;;;;;;;7.90;6.90;;;;;;;;;;5010065;28;20667;-73
2023/04/01 11:59:47;;;;;;;8.82;6.18;;;;;;;;;;5009969;28;20555;-72
2023/04/01 12:02:18;;;;;;;9.13;6.72;;;;;;;;;;5012837;28;20198;-72
2023/04/01 12:04:54;;;;;;;8.68;6.30;;;;;;;;;;5014353;28;20213;-72
2023/04/01 12:07:19;;;;;;;8.07;5.97;;;;;;;;;;5012184;28;20270;-73
2023/04/01 12:09:50;;;;;;;7.60;6.47;;;;;;;;;;5015332;28;20265;-72
2023/04/01 12:12:18;;;;;;;6.70;6.00;;;;;;;;;;5013468;28;20223;-72
2023/04/01 12:14:50;;;;;;;8.20;7.07;;;;;;;;;;5006666;28;20191;-73
2023/04/01 12:17:30;;;;;;;9.68;7.32;;;;;;;;;;5009533;28;20665;-72
2023/04/01 12:20:04;;;;;;;8.10;6.22;;;;;;;;;;5011041;28;20560;-72
2023/04/01 12:22:42;;;;;;;6.97;6.03;;;;;;;;;;4998525;28;20202;-72
2023/04/01 12:25:22;;;;;;;7.57;6.00;;;;;;;;;;5009859;28;20493;-73
2023/04/01 12:28:10;;;;;;;4.70;3.72;;;;;;;;;;5011433;28;20327;-73
2023/04/01 12:30:41;;;;;;;5.18;3.95;;;;;;;;;;5010159;28;20167;-73
2023/04/01 12:33:25;;;;;;;4.53;3.83;;;;;;;;;;5023371;28;20558;-74
2023/04/01 12:36:07;;;;;;;5.53;4.75;;;;;;;;;;5013663;28;20225;-73
2023/04/01 12:38:51;;;;;;;6.38;4.65;;;;;;;;;;5012665;28;20191;-74
2023/04/01 12:41:36;;;;;;;5.70;4.70;;;;;;;;;;5012805;28;20199;-73
2023/04/01 12:44:06;;;;;;;6.00;4.32;;;;;;;;;;5027393;28;20684;-74
2023/04/01 12:46:37;;;;;;;6.75;5.22;;;;;;;;;;5011285;28;20171;-74
2023/04/01 12:49:02;;;;;;;7.38;4.93;;;;;;;;;;5012391;28;20717;-74
2023/04/01 12:51:37;;;;;;;6.78;4.68;;;;;;;;;;5013920;28;20189;-73
2023/04/01 12:54:02;;;;;;;9.32;5.40;;;;;;;;;;5011413;28;20240;-74
2023/04/01 12:56:36;;;;;;;6.15;5.22;;;;;;;;;;5011769;28;20656;-74
2023/04/01 12:59:25;;;;;;;8.13;6.13;;;;;;;;;;5010248;28;20210;-73
2023/04/01 13:02:02;;;;;;;6.95;5.35;;;;;;;;;;5000280;28;20218;-74
2023/04/01 13:04:43;;;;;;;7.07;5.55;;;;;;;;;;5024004;28;20752;-73
2023/04/01 13:07:11;;;;;;;8.77;6.22;;;;;;;;;;5010701;28;20205;-73
2023/04/01 13:09:47;;;;;;;6.88;4.40;;;;;;;;;;5005025;28;20167;-73
2023/04/01 13:12:31;;;;;;;6.78;4.88;;;;;;;;;;5010988;28;20194;-73
2023/04/01 13:15:35;;;;;;;8.85;4.35;;;;;;;;;;5003961;28;20178;-73
2023/04/01 13:18:38;;;;;;;5.38;3.85;;;;;;;;;;4950519;28;20212;-73
2023/04/01 13:21:05;;;;;;;4.35;3.63;;;;;;;;;;4884770;29;20256;-73
2023/04/01 13:23:38;;;;;;;5.22;4.25;;;;;;;;;;4918329;29;20209;-73
2023/04/01 13:26:09;;;;;;;4.32;3.72;;;;;;;;;;4975596;28;20237;-73
2023/04/01 13:28:40;;;;;;;5.43;4.05;;;;;;;;;;5008577;28;20225;-74
2023/04/01 13:31:24;;;;;;;5.07;3.78;;;;;;;;;;5011366;28;20290;-73
2023/04/01 13:33:55;;;;;;;4.65;3.50;;;;;;;;;;5010644;28;20190;-73
2023/04/01 13:36:29;;;;;;;5.75;3.85;;;;;;;;;;5012280;28;20189;-73
2023/04/01 13:39:03;;;;;;;5.10;4.25;;;;;;;;;;5011438;28;20187;-73
2023/04/01 13:41:47;;;;;;;3.90;3.42;;;;;;;;;;5013019;28;20220;-73
2023/04/01 13:44:20;;;;;;;6.90;4.20;;;;;;;;;;5004771;28;20280;-73
2023/04/01 13:47:03;;;;;;;5.15;3.55;;;;;;;;;;5012924;28;20175;-74
2023/04/01 13:49:29;;;;;;;4.47;3.58;;;;;;;;;;5010444;28;20194;-74
2023/04/01 13:51:57;;;;;;;5.57;3.88;;;;;;;;;;5012025;28;20574;-74
2023/04/01 13:54:25;;;;;;;4.22;3.72;;;;;;;;;;5011229;28;20185;-73
2023/04/01 13:56:56;;;;;;;6.03;3.90;;;;;;;;;;5010804;28;20666;-74
2023/04/01 13:59:33;;;;;;;3.55;3.25;;;;;;;;;;5003713;28;20667;-75
2023/04/01 14:02:04;;;;;;;4.32;3.92;;;;;;;;;;5009332;28;20263;-74
2023/04/01 14:04:49;;;;;;;4.30;3.40;;;;;;;;;;5008089;28;20207;-74
2023/04/01 14:07:27;;;;;;;3.60;3.30;;;;;;;;;;5010248;28;20190;-73
2023/04/01 14:10:06;;;;;;;5.05;3.67;;;;;;;;;;5012137;28;20257;-74
2023/04/01 14:12:37;;;;;;;4.00;2.78;;;;;;;;;;5009484;28;20202;-74
2023/04/01 14:15:19;;;;;;;3.63;3.17;;;;;;;;;;5009004;28;20225;-74
2023/04/01 14:17:47;;;;;;;4.07;3.63;;;;;;;;;;5004568;28;20653;-73
2023/04/01 14:20:22;;;;;;;3.50;3.20;;;;;;;;;;5010145;28;20179;-74
2023/04/01 14:23:10;;;;;;;4.55;3.17;;;;;;;;;;5009693;28;20256;-73
2023/04/01 14:25:54;;;;;;;4.78;3.88;;;;;;;;;;5004071;28;20206;-74
2023/04/01 14:28:19;;;;;;;5.00;3.75;;;;;;;;;;5009896;28;20185;-74
2023/04/01 14:31:03;;;;;;;6.40;3.63;;;;;;;;;;5024489;28;20621;-74
2023/04/01 14:33:31;;;;;;;5.70;4.43;;;;;;;;;;5005516;22;20246;-69
2023/04/01 14:36:05;;;;;;;5.60;3.78;;;;;;;;;;4990457;28;20183;-69
2023/04/01 14:38:47;;;;;;;5.97;4.65;;;;;;;;;;4989679;28;20267;-70
2023/04/01 14:41:26;;;;;;;5.82;4.18;;;;;;;;;;4986526;28;20267;-69
2023/04/01 14:44:05;;;;;;;7.07;5.05;;;;;;;;;;4969084;28;20582;-69
2023/04/01 14:46:33;;;;;;;5.57;4.90;;;;;;;;;;4965994;28;20172;-69
2023/04/01 14:49:03;;;;;;;6.40;5.05;;;;;;;;;;4969764;28;20176;-68
2023/04/01 14:51:38;;;;;;;7.57;5.70;;;;;;;;;;4968487;28;20185;-70